Metar z pełnej godziny Komunikat METAR ze strony awiacja.imgw.pl Metar G00 EPWR METAR EPWR 221400Z 29010KT 250V350 9999 FEW040CB 16/04 Q1017 =